Time;durP1;ratioP1;P1;durP2;ratioP2;P2;SDS_P1;SDS_P2;PMS_P1;PMS_P2;Temp;Humidity;BMP_temperature;BMP_pressure;BME280_temperature;BME280_humidity;BME280_pressure;Samples;Min_cycle;Max_cycle;Signal;HPM_P1;HPM_P2
2023/07/23 00:01:30;;;;;;;5.55;2.38;;;22.20;87.60;;;;;;5058839;28;20222;-66
2023/07/23 00:03:58;;;;;;;3.10;2.75;;;22.20;88.00;;;;;;5090835;28;20218;-66
2023/07/23 00:06:26;;;;;;;3.58;2.55;;;22.20;88.90;;;;;;5073583;28;20177;-65
2023/07/23 00:08:52;;;;;;;3.00;2.60;;;22.20;88.00;;;;;;5074309;28;20204;-65
2023/07/23 00:11:18;;;;;;;3.30;2.70;;;22.10;88.40;;;;;;5071871;28;20184;-65
2023/07/23 00:13:43;;;;;;;3.83;2.72;;;22.10;88.90;;;;;;5068643;28;20180;-65
2023/07/23 00:16:09;;;;;;;3.40;2.80;;;22.10;88.50;;;;;;5077381;28;20176;-65
2023/07/23 00:18:34;;;;;;;3.47;2.85;;;22.10;88.60;;;;;;5074063;28;20209;-65
2023/07/23 00:21:03;;;;;;;3.58;2.92;;;22.10;88.90;;;;;;5077506;28;20180;-65
2023/07/23 00:23:28;;;;;;;2.95;2.65;;;22.10;89.00;;;;;;5094327;28;20196;-65
2023/07/23 00:25:54;;;;;;;4.07;2.80;;;22.00;89.20;;;;;;5088045;28;20447;-65
2023/07/23 00:28:20;;;;;;;3.55;2.92;;;22.00;89.10;;;;;;5068832;28;20180;-64
2023/07/23 00:30:48;;;;;;;3.65;2.97;;;22.00;89.20;;;;;;5077293;28;20180;-65
2023/07/23 00:33:13;;;;;;;3.22;2.88;;;22.00;89.40;;;;;;5077457;28;20184;-64
2023/07/23 00:35:44;;;;;;;3.45;2.92;;;21.90;89.40;;;;;;5080447;28;20208;-65
2023/07/23 00:38:10;;;;;;;3.72;2.97;;;21.90;89.10;;;;;;5057531;28;20201;-65
2023/07/23 00:40:38;;;;;;;4.40;2.72;;;21.90;89.70;;;;;;5057207;28;20180;-65
2023/07/23 00:43:10;;;;;;;3.05;2.60;;;21.90;89.80;;;;;;5058601;28;20250;-65
2023/07/23 00:45:36;;;;;;;3.47;3.05;;;21.90;89.60;;;;;;5071305;28;20410;-65
2023/07/23 00:48:05;;;;;;;3.53;2.97;;;21.80;89.90;;;;;;5093319;28;20200;-66
2023/07/23 00:50:31;;;;;;;4.43;3.30;;;21.80;89.90;;;;;;5062940;28;20185;-65
2023/07/23 00:52:59;;;;;;;4.13;2.95;;;21.80;89.90;;;;;;5066805;28;20286;-65
2023/07/23 00:55:25;;;;;;;3.55;3.03;;;21.80;89.90;;;;;;5067524;28;20197;-65
2023/07/23 00:57:51;;;;;;;4.07;2.95;;;21.80;90.00;;;;;;5069255;28;20218;-65
2023/07/23 01:00:17;;;;;;;4.00;3.10;;;21.80;90.40;;;;;;5072106;28;20173;-65
2023/07/23 01:02:45;;;;;;;3.00;2.70;;;21.80;90.20;;;;;;5075112;28;20311;-66
2023/07/23 01:05:13;;;;;;;2.85;2.50;;;21.80;90.30;;;;;;5074268;28;20268;-65
2023/07/23 01:07:43;;;;;;;3.00;2.58;;;21.80;90.30;;;;;;5074694;28;20176;-65
2023/07/23 01:10:09;;;;;;;3.58;2.83;;;21.80;90.20;;;;;;5074389;28;20271;-65
2023/07/23 01:12:38;;;;;;;6.07;3.10;;;21.80;90.50;;;;;;5060037;28;20217;-65
2023/07/23 01:15:06;;;;;;;3.33;2.72;;;21.80;90.40;;;;;;5076465;28;20204;-65
2023/07/23 01:17:33;;;;;;;4.05;2.90;;;21.70;90.50;;;;;;5076365;28;20222;-65
2023/07/23 01:20:04;;;;;;;2.75;2.47;;;21.70;90.50;;;;;;5069145;28;21623;-66
2023/07/23 01:22:34;;;;;;;3.17;2.60;;;21.70;90.40;;;;;;5061125;28;20196;-66
2023/07/23 01:24:59;;;;;;;3.05;2.65;;;21.70;90.60;;;;;;5079988;28;20240;-66
2023/07/23 01:27:25;;;;;;;3.53;2.63;;;21.70;90.60;;;;;;5075240;28;20274;-65
2023/07/23 01:29:51;;;;;;;3.65;2.42;;;21.70;90.60;;;;;;5065786;28;20212;-64
2023/07/23 01:32:16;;;;;;;3.33;2.67;;;21.60;90.50;;;;;;5065096;28;20267;-65
2023/07/23 01:34:42;;;;;;;3.30;2.60;;;21.60;90.60;;;;;;5070955;28;20209;-64
2023/07/23 01:37:10;;;;;;;3.15;2.75;;;21.60;90.50;;;;;;5075876;28;20295;-65
2023/07/23 01:39:36;;;;;;;4.10;2.65;;;21.60;90.40;;;;;;5072979;28;20236;-65
2023/07/23 01:42:02;;;;;;;4.00;2.72;;;21.60;90.60;;;;;;5056353;28;20316;-66
2023/07/23 01:44:28;;;;;;;3.05;2.58;;;21.60;90.60;;;;;;5066733;28;20166;-65
2023/07/23 01:46:54;;;;;;;3.10;2.60;;;21.60;90.60;;;;;;5056186;28;20181;-66
2023/07/23 01:49:20;;;;;;;3.17;2.78;;;21.50;90.60;;;;;;5072898;28;20326;-66
2023/07/23 01:51:48;;;;;;;3.30;2.90;;;21.50;90.50;;;;;;5092857;28;20180;-66
2023/07/23 01:54:14;;;;;;;4.22;3.00;;;21.50;90.40;;;;;;5076003;28;20215;-66
2023/07/23 01:56:39;;;;;;;3.10;2.53;;;21.50;90.60;;;;;;5092867;28;20184;-66
2023/07/23 01:59:05;;;;;;;4.65;2.90;;;21.40;90.60;;;;;;5077862;28;20234;-65
2023/07/23 02:01:33;;;;;;;3.83;2.95;;;21.40;90.70;;;;;;5070904;28;20197;-65
2023/07/23 02:03:58;;;;;;;2.88;2.42;;;21.40;90.70;;;;;;5069671;28;20259;-65
2023/07/23 02:06:26;;;;;;;3.17;2.80;;;21.40;90.70;;;;;;5075631;28;20246;-66
2023/07/23 02:08:54;;;;;;;3.65;3.10;;;21.40;90.70;;;;;;5071853;28;20268;-65
2023/07/23 02:11:22;;;;;;;3.03;2.70;;;21.30;90.60;;;;;;5055680;28;20199;-66
2023/07/23 02:13:48;;;;;;;4.05;2.72;;;21.30;90.60;;;;;;5066462;28;20231;-66
2023/07/23 02:16:22;;;;;;;3.17;2.60;;;21.30;90.80;;;;;;5065810;28;20235;-66
2023/07/23 02:18:48;;;;;;;3.42;2.75;;;21.20;90.40;;;;;;5069034;28;20200;-66
2023/07/23 02:21:14;;;;;;;3.75;3.00;;;21.20;90.80;;;;;;5074906;28;20196;-66
2023/07/23 02:23:41;;;;;;;3.30;3.00;;;21.20;91.00;;;;;;5066841;28;20188;-66
2023/07/23 02:26:09;;;;;;;4.55;2.90;;;21.10;91.00;;;;;;5069180;28;20172;-64
2023/07/23 02:28:40;;;;;;;4.18;2.92;;;21.10;91.10;;;;;;5070079;28;20173;-64
2023/07/23 02:31:08;;;;;;;3.45;2.80;;;21.10;91.20;;;;;;5074187;28;20186;-64
2023/07/23 02:33:34;;;;;;;4.40;2.83;;;21.10;91.20;;;;;;5059992;28;20206;-64
2023/07/23 02:36:02;;;;;;;3.25;2.45;;;21.10;91.30;;;;;;5060642;28;20196;-64
2023/07/23 02:38:28;;;;;;;2.88;2.53;;;21.10;91.30;;;;;;5073004;28;20228;-64
2023/07/23 02:40:58;;;;;;;3.38;2.75;;;21.10;91.40;;;;;;5061414;28;20254;-64
2023/07/23 02:43:26;;;;;;;4.28;3.05;;;21.10;91.30;;;;;;5068692;28;20290;-64
2023/07/23 02:45:51;;;;;;;3.78;2.67;;;21.10;91.40;;;;;;5074396;28;20196;-65
2023/07/23 02:48:19;;;;;;;3.03;2.50;;;21.10;91.40;;;;;;5066143;28;20207;-65
2023/07/23 02:50:45;;;;;;;3.35;2.90;;;21.10;91.60;;;;;;5061804;28;20260;-64
2023/07/23 02:53:13;;;;;;;3.45;2.70;;;21.10;91.60;;;;;;5070893;28;20291;-67
2023/07/23 02:55:41;;;;;;;5.57;2.90;;;21.10;91.60;;;;;;5068082;28;20177;-66
2023/07/23 02:58:09;;;;;;;3.42;2.72;;;21.10;91.70;;;;;;5063788;28;20292;-66
2023/07/23 03:00:34;;;;;;;3.20;2.50;;;21.10;91.50;;;;;;5068176;28;20191;-66
2023/07/23 03:03:00;;;;;;;3.25;2.70;;;21.10;91.70;;;;;;5060035;28;20262;-65
2023/07/23 03:05:26;;;;;;;3.47;2.45;;;21.10;91.80;;;;;;5075219;28;20179;-65
2023/07/23 03:07:52;;;;;;;3.47;2.80;;;21.10;91.80;;;;;;5057367;28;20188;-65
2023/07/23 03:10:18;;;;;;;3.15;2.60;;;21.10;91.70;;;;;;5063059;28;20181;-66
2023/07/23 03:12:44;;;;;;;3.20;2.65;;;21.10;91.70;;;;;;5074139;28;20198;-65
2023/07/23 03:15:12;;;;;;;3.15;2.85;;;21.10;91.70;;;;;;5074375;28;20322;-66
2023/07/23 03:17:38;;;;;;;3.03;2.70;;;21.10;91.30;;;;;;5074498;28;20234;-66
2023/07/23 03:20:04;;;;;;;3.55;2.53;;;21.10;91.80;;;;;;5074270;28;20200;-66
2023/07/23 03:22:30;;;;;;;2.63;2.38;;;21.20;91.50;;;;;;5070560;28;20196;-66
2023/07/23 03:24:55;;;;;;;4.15;2.70;;;21.20;91.60;;;;;;5071510;28;20177;-66
2023/07/23 03:27:21;;;;;;;3.58;2.90;;;21.20;91.50;;;;;;5074392;28;20188;-66
2023/07/23 03:29:47;;;;;;;4.53;2.65;;;21.30;91.40;;;;;;5074029;28;20172;-66
2023/07/23 03:32:17;;;;;;;3.10;2.65;;;21.30;91.30;;;;;;5070361;28;20208;-66
2023/07/23 03:34:43;;;;;;;4.95;2.60;;;21.30;91.10;;;;;;5070790;28;20181;-65
2023/07/23 03:37:08;;;;;;;3.20;2.60;;;21.30;91.00;;;;;;5074391;28;20208;-66
2023/07/23 03:39:34;;;;;;;3.63;2.70;;;21.40;91.20;;;;;;5087463;28;20172;-65
2023/07/23 03:42:03;;;;;;;2.88;2.42;;;21.40;91.20;;;;;;5074176;28;20218;-65
2023/07/23 03:44:31;;;;;;;3.22;2.53;;;21.40;91.10;;;;;;5074210;28;20218;-65
2023/07/23 03:47:06;;;;;;;2.55;2.30;;;21.40;91.10;;;;;;5074525;28;20229;-66
2023/07/23 03:49:32;;;;;;;4.28;2.60;;;21.40;91.00;;;;;;5054599;28;20200;-64
2023/07/23 03:51:58;;;;;;;3.13;2.65;;;21.40;91.00;;;;;;5064308;28;20205;-65
2023/07/23 03:54:29;;;;;;;3.17;2.42;;;21.40;91.00;;;;;;5074200;28;20173;-64
2023/07/23 03:56:54;;;;;;;3.88;2.75;;;21.40;91.00;;;;;;5066182;28;20375;-65
2023/07/23 03:59:30;;;;;;;3.05;2.30;;;21.30;90.90;;;;;;5072626;28;20191;-65
2023/07/23 04:01:58;;;;;;;3.75;2.70;;;21.30;90.70;;;;;;5074212;28;20199;-65
2023/07/23 04:04:24;;;;;;;5.05;3.25;;;21.30;91.00;;;;;;5074114;28;20204;-65
2023/07/23 04:06:49;;;;;;;4.22;2.85;;;21.30;91.10;;;;;;5058289;28;20169;-65
2023/07/23 04:09:17;;;;;;;3.95;2.88;;;21.30;91.30;;;;;;5054126;28;20174;-66
2023/07/23 04:11:43;;;;;;;3.10;2.58;;;21.30;91.30;;;;;;5056498;28;20236;-66
2023/07/23 04:14:08;;;;;;;3.03;2.72;;;21.30;91.30;;;;;;5073677;28;20204;-66
2023/07/23 04:16:34;;;;;;;7.18;2.67;;;21.30;91.30;;;;;;5073906;28;20181;-67
2023/07/23 04:19:02;;;;;;;3.30;2.70;;;21.30;91.40;;;;;;5070903;28;20203;-68
2023/07/23 04:21:32;;;;;;;3.20;2.60;;;21.30;91.40;;;;;;5069629;28;20173;-67
2023/07/23 04:23:58;;;;;;;3.28;2.13;;;21.30;91.20;;;;;;5070273;28;20196;-67
2023/07/23 04:26:29;;;;;;;2.72;2.42;;;21.30;91.50;;;;;;5072293;28;20257;-67
2023/07/23 04:28:58;;;;;;;4.10;2.22;;;21.40;91.50;;;;;;5073465;28;20249;-67
2023/07/23 04:31:23;;;;;;;4.22;2.40;;;21.40;91.50;;;;;;5072493;28;20183;-65
2023/07/23 04:33:52;;;;;;;4.82;2.40;;;21.40;91.70;;;;;;5090238;28;20255;-67
2023/07/23 04:36:18;;;;;;;2.90;2.45;;;21.40;91.60;;;;;;5066206;28;20220;-68
2023/07/23 04:38:44;;;;;;;2.85;2.40;;;21.40;91.80;;;;;;5072080;28;20238;-67
2023/07/23 04:41:12;;;;;;;2.55;2.20;;;21.40;91.80;;;;;;5073719;28;20179;-65
2023/07/23 04:43:41;;;;;;;4.40;2.42;;;21.40;91.70;;;;;;5073605;28;20189;-67
2023/07/23 04:46:07;;;;;;;4.15;2.17;;;21.40;91.90;;;;;;5073690;28;20180;-67
2023/07/23 04:48:34;;;;;;;3.85;2.40;;;21.40;92.00;;;;;;5073140;28;20196;-68
2023/07/23 04:51:05;;;;;;;2.42;2.13;;;21.30;92.00;;;;;;5073310;28;20188;-68
2023/07/23 04:53:31;;;;;;;2.25;2.00;;;21.30;92.00;;;;;;5073145;28;20184;-67
2023/07/23 04:55:58;;;;;;;2.75;2.17;;;21.30;92.10;;;;;;5075336;28;20207;-64
2023/07/23 04:58:25;;;;;;;3.25;2.42;;;21.30;92.10;;;;;;5056874;28;20201;-64
2023/07/23 05:00:56;;;;;;;4.10;2.22;;;21.30;92.20;;;;;;5070498;28;20177;-64
2023/07/23 05:03:24;;;;;;;3.72;2.30;;;21.30;92.30;;;;;;5076917;28;20192;-65
2023/07/23 05:05:54;;;;;;;2.63;2.20;;;21.30;92.40;;;;;;5074397;28;20173;-65
2023/07/23 05:08:21;;;;;;;4.20;2.17;;;21.30;92.40;;;;;;5056586;28;20208;-61
2023/07/23 05:10:49;;;;;;;2.70;2.22;;;21.30;92.50;;;;;;5056720;28;20173;-61
2023/07/23 05:13:15;;;;;;;3.63;2.10;;;21.30;92.40;;;;;;5056357;28;20225;-65
2023/07/23 05:15:43;;;;;;;2.97;2.13;;;21.30;92.60;;;;;;5056400;28;20213;-63
2023/07/23 05:18:09;;;;;;;2.15;1.90;;;21.30;92.90;;;;;;5065482;28;20227;-65
2023/07/23 05:20:35;;;;;;;3.85;2.30;;;21.30;92.70;;;;;;5075875;28;20205;-64
2023/07/23 05:23:05;;;;;;;3.28;2.63;;;21.30;92.80;;;;;;5076142;28;20183;-66
2023/07/23 05:25:33;;;;;;;2.33;2.13;;;21.30;92.60;;;;;;5062561;28;20235;-65
2023/07/23 05:28:01;;;;;;;3.92;1.85;;;21.30;92.80;;;;;;5056220;28;20180;-65
2023/07/23 05:30:29;;;;;;;3.50;2.17;;;21.30;92.80;;;;;;5056692;28;20197;-62
2023/07/23 05:32:55;;;;;;;3.67;2.08;;;21.30;92.80;;;;;;5076407;28;20501;-64
2023/07/23 05:35:20;;;;;;;2.67;2.17;;;21.40;92.90;;;;;;5076493;28;20212;-64
2023/07/23 05:37:46;;;;;;;4.90;2.15;;;21.40;93.00;;;;;;5066070;28;20208;-64
2023/07/23 05:40:14;;;;;;;2.47;2.00;;;21.40;92.90;;;;;;5065542;28;20176;-65
2023/07/23 05:42:39;;;;;;;3.72;2.20;;;21.40;92.70;;;;;;5076569;28;20230;-64
2023/07/23 05:45:05;;;;;;;3.58;2.17;;;21.40;92.60;;;;;;5076528;28;20168;-65
2023/07/23 05:47:31;;;;;;;2.53;2.20;;;21.50;92.70;;;;;;5076147;28;20176;-64
2023/07/23 05:49:57;;;;;;;2.88;2.13;;;21.50;92.80;;;;;;5076216;28;20298;-65
2023/07/23 05:52:22;;;;;;;2.25;2.05;;;21.50;92.80;;;;;;5076238;28;20478;-64
2023/07/23 05:54:48;;;;;;;2.75;2.03;;;21.50;92.80;;;;;;5073646;28;20250;-64
2023/07/23 05:57:14;;;;;;;3.03;2.10;;;21.50;92.80;;;;;;5065984;28;20438;-65
2023/07/23 05:59:42;;;;;;;2.67;2.10;;;21.60;92.90;;;;;;5075885;28;20173;-64
2023/07/23 06:02:08;;;;;;;3.85;3.00;;;21.60;92.90;;;;;;5075993;28;20195;-63
2023/07/23 06:04:36;;;;;;;2.63;2.30;;;21.60;93.00;;;;;;5075887;28;20264;-64
2023/07/23 06:07:04;;;;;;;6.55;2.10;;;21.70;93.00;;;;;;5074887;28;20173;-64
2023/07/23 06:09:29;;;;;;;2.08;1.88;;;21.70;93.10;;;;;;5075820;28;20256;-64
2023/07/23 06:11:55;;;;;;;2.42;1.90;;;21.70;93.20;;;;;;5072096;28;20177;-62
2023/07/23 06:14:21;;;;;;;3.50;3.20;;;21.70;93.00;;;;;;5075122;28;20172;-64
2023/07/23 06:16:47;;;;;;;3.80;3.13;;;21.80;93.20;;;;;;5066453;28;20532;-65
2023/07/23 06:19:14;;;;;;;2.50;2.00;;;21.80;93.30;;;;;;5071693;28;20173;-65
2023/07/23 06:21:42;;;;;;;2.58;2.33;;;21.80;93.30;;;;;;5075439;28;20238;-63
2023/07/23 06:24:08;;;;;;;2.67;1.90;;;21.80;93.40;;;;;;5075476;28;20169;-64
2023/07/23 06:26:33;;;;;;;4.25;1.98;;;21.80;93.20;;;;;;5075530;28;20165;-62
2023/07/23 06:29:01;;;;;;;2.20;2.00;;;21.90;93.10;;;;;;5059944;28;20224;-64
2023/07/23 06:31:27;;;;;;;2.97;1.95;;;21.90;93.20;;;;;;5065662;28;20234;-65
2023/07/23 06:33:55;;;;;;;2.78;2.22;;;21.90;93.20;;;;;;5073470;28;20192;-65
2023/07/23 06:36:20;;;;;;;2.50;1.75;;;21.90;92.90;;;;;;5075123;28;20176;-64
2023/07/23 06:38:46;;;;;;;2.28;1.70;;;21.90;93.00;;;;;;5075790;28;20192;-63
2023/07/23 06:41:16;;;;;;;2.70;1.70;;;21.90;92.90;;;;;;5075188;28;20238;-64
2023/07/23 06:43:47;;;;;;;3.53;1.52;;;21.90;92.80;;;;;;5081208;28;20191;-65
2023/07/23 06:46:17;;;;;;;2.42;1.80;;;22.00;92.80;;;;;;5075167;28;20164;-64
2023/07/23 06:48:42;;;;;;;1.67;1.55;;;22.00;92.50;;;;;;5066401;28;20212;-65
2023/07/23 06:51:11;;;;;;;1.90;1.58;;;22.00;92.40;;;;;;5075147;28;20180;-65
2023/07/23 06:53:39;;;;;;;2.30;1.60;;;22.00;92.40;;;;;;5066175;28;20238;-64
2023/07/23 06:56:10;;;;;;;2.22;1.40;;;22.00;92.40;;;;;;5055047;28;20173;-65
2023/07/23 06:58:37;;;;;;;2.00;1.50;;;22.00;92.50;;;;;;5060928;28;20330;-65
2023/07/23 07:01:06;;;;;;;2.25;1.45;;;22.00;92.60;;;;;;5075057;28;20226;-65
2023/07/23 07:03:34;;;;;;;2.45;1.98;;;22.10;92.60;;;;;;5074871;28;20240;-65
2023/07/23 07:06:06;;;;;;;3.00;2.17;;;22.10;92.30;;;;;;5074809;28;20173;-65
2023/07/23 07:08:32;;;;;;;2.70;2.00;;;22.00;92.00;;;;;;5074674;28;20226;-66
2023/07/23 07:10:58;;;;;;;2.17;1.50;;;22.00;92.00;;;;;;5074034;28;20184;-64
2023/07/23 07:13:24;;;;;;;1.92;1.63;;;22.00;92.10;;;;;;5074241;28;20196;-64
2023/07/23 07:15:50;;;;;;;2.28;1.67;;;22.00;92.20;;;;;;5074796;28;20176;-63
2023/07/23 07:18:15;;;;;;;2.38;1.52;;;22.00;92.70;;;;;;5074192;28;20205;-66
2023/07/23 07:20:41;;;;;;;4.90;1.98;;;21.90;92.30;;;;;;5074580;28;20192;-65
2023/07/23 07:23:09;;;;;;;2.47;1.80;;;21.80;92.40;;;;;;5073518;28;20263;-63
2023/07/23 07:25:36;;;;;;;2.10;1.60;;;21.70;92.30;;;;;;5056362;28;20253;-65
2023/07/23 07:28:03;;;;;;;2.70;1.65;;;21.60;92.50;;;;;;5056344;28;20268;-64
2023/07/23 07:30:29;;;;;;;2.88;2.03;;;21.40;92.70;;;;;;5091280;28;20180;-64
2023/07/23 07:32:57;;;;;;;1.95;1.65;;;21.30;93.00;;;;;;5062465;28;20201;-64
2023/07/23 07:35:23;;;;;;;1.60;1.50;;;21.10;93.20;;;;;;5057032;28;20187;-64
2023/07/23 07:37:48;;;;;;;3.33;1.90;;;21.00;93.40;;;;;;5054224;28;20201;-64
2023/07/23 07:40:14;;;;;;;2.72;1.75;;;20.90;93.80;;;;;;5054059;28;20197;-64
2023/07/23 07:42:40;;;;;;;2.88;1.85;;;20.80;94.30;;;;;;5054228;28;20231;-62
2023/07/23 07:45:06;;;;;;;2.33;1.80;;;20.70;94.70;;;;;;5054001;28;20189;-64
2023/07/23 07:47:35;;;;;;;4.55;1.95;;;20.70;95.10;;;;;;5069373;28;20190;-61
2023/07/23 07:50:05;;;;;;;1.75;1.60;;;20.60;95.50;;;;;;5074235;28;20192;-64
2023/07/23 07:52:31;;;;;;;2.00;1.60;;;20.60;95.80;;;;;;5074252;28;20196;-64
2023/07/23 07:54:59;;;;;;;3.25;2.63;;;20.60;96.00;;;;;;5073863;28;20165;-64
2023/07/23 07:57:25;;;;;;;2.50;2.00;;;20.60;96.20;;;;;;5073869;28;20226;-63
2023/07/23 07:59:51;;;;;;;2.15;1.80;;;20.60;96.60;;;;;;5074208;28;20222;-64
2023/07/23 08:02:22;;;;;;;2.72;1.67;;;20.60;96.90;;;;;;5072975;28;20178;-64
2023/07/23 08:04:50;;;;;;;2.03;1.80;;;20.50;97.20;;;;;;5071716;28;20203;-61
2023/07/23 08:07:19;;;;;;;2.45;1.60;;;20.50;97.70;;;;;;5054019;28;20174;-63
2023/07/23 08:09:45;;;;;;;2.15;1.67;;;20.50;97.80;;;;;;5070199;28;20245;-64
2023/07/23 08:12:12;;;;;;;2.28;1.75;;;20.50;98.20;;;;;;5090631;28;20266;-64
2023/07/23 08:14:41;;;;;;;2.00;1.70;;;20.50;98.70;;;;;;5074111;28;20180;-62
2023/07/23 08:17:07;;;;;;;2.35;1.80;;;20.50;98.90;;;;;;5073456;28;20211;-64
2023/07/23 08:19:33;;;;;;;2.58;2.10;;;20.60;99.30;;;;;;5073994;28;20214;-64
2023/07/23 08:22:01;;;;;;;2.55;1.77;;;20.60;99.50;;;;;;5073921;28;20203;-64
2023/07/23 08:24:31;;;;;;;2.15;1.70;;;20.60;99.90;;;;;;5054028;28;20193;-64
2023/07/23 08:27:02;;;;;;;2.45;1.70;;;20.60;99.90;;;;;;5070421;28;20176;-64
2023/07/23 08:29:29;;;;;;;2.30;1.95;;;20.60;99.90;;;;;;5071035;28;20180;-64
2023/07/23 08:31:56;;;;;;;2.25;1.60;;;20.60;99.90;;;;;;5077854;28;20234;-64
2023/07/23 08:34:22;;;;;;;2.00;1.30;;;20.60;99.90;;;;;;5076867;28;20191;-64
2023/07/23 08:36:49;;;;;;;2.58;1.73;;;20.60;99.90;;;;;;5077433;28;20197;-64
2023/07/23 08:39:15;;;;;;;2.70;1.60;;;20.60;99.90;;;;;;5077727;28;20173;-64
2023/07/23 08:42:00;;;;;;;2.22;1.70;;;20.60;99.90;;;;;;5077464;28;20168;-62
2023/07/23 08:45:08;;;;;;;3.13;1.92;;;20.60;99.90;;;;;;5077559;28;20254;-62
2023/07/23 08:47:38;;;;;;;1.85;1.45;;;20.70;99.90;;;;;;5069955;28;20200;-64
2023/07/23 08:50:04;;;;;;;2.97;1.88;;;20.70;99.90;;;;;;5077358;28;20212;-64
2023/07/23 08:52:34;;;;;;;3.67;1.67;;;20.60;99.90;;;;;;5072670;28;20189;-65
2023/07/23 08:55:00;;;;;;;2.10;1.70;;;20.60;99.90;;;;;;5077142;28;20212;-64
2023/07/23 08:57:26;;;;;;;2.53;1.67;;;20.70;99.90;;;;;;5077018;28;20232;-64
2023/07/23 08:59:53;;;;;;;4.82;1.98;;;20.60;99.90;;;;;;5076178;28;20176;-62
2023/07/23 09:02:20;;;;;;;3.20;2.05;;;20.60;99.90;;;;;;5065197;28;20196;-64
2023/07/23 09:04:46;;;;;;;3.75;2.47;;;20.60;99.90;;;;;;5075434;28;20177;-64
2023/07/23 09:07:15;;;;;;;2.80;2.38;;;20.60;99.90;;;;;;5073130;28;20179;-62
2023/07/23 09:09:40;;;;;;;2.92;2.00;;;20.60;99.90;;;;;;5071859;28;20339;-64
2023/07/23 09:12:06;;;;;;;3.25;1.80;;;20.60;99.90;;;;;;5062702;28;20188;-62
2023/07/23 09:14:40;;;;;;;3.60;1.83;;;20.60;99.90;;;;;;5057053;28;20173;-62
2023/07/23 09:17:16;;;;;;;1.70;1.50;;;20.60;99.90;;;;;;5066653;28;20175;-65
2023/07/23 09:19:42;;;;;;;1.90;1.48;;;20.60;99.90;;;;;;5076991;28;20168;-63
2023/07/23 09:22:07;;;;;;;2.63;1.73;;;20.60;99.90;;;;;;5075896;28;20502;-65
2023/07/23 09:24:33;;;;;;;2.08;1.77;;;20.60;99.90;;;;;;5074568;28;20176;-64
2023/07/23 09:27:00;;;;;;;2.45;1.70;;;20.70;99.90;;;;;;5077260;28;20168;-64
2023/07/23 09:29:36;;;;;;;2.83;2.05;;;20.70;99.90;;;;;;5076774;28;20177;-64
2023/07/23 09:32:15;;;;;;;3.33;2.15;;;20.80;99.90;;;;;;5076800;28;20163;-63
2023/07/23 09:34:48;;;;;;;3.03;1.90;;;20.80;99.90;;;;;;5076620;28;20196;-64
2023/07/23 09:37:15;;;;;;;3.00;2.10;;;20.80;99.90;;;;;;5076700;28;20283;-61
2023/07/23 09:39:41;;;;;;;3.83;2.08;;;20.80;99.90;;;;;;5069008;28;20174;-64
2023/07/23 09:42:07;;;;;;;2.97;1.80;;;20.80;99.90;;;;;;5062349;28;20246;-63
2023/07/23 09:44:33;;;;;;;3.15;1.90;;;20.80;99.90;;;;;;5076122;28;20172;-65
2023/07/23 09:47:00;;;;;;;2.83;1.75;;;20.90;99.90;;;;;;5076214;28;20179;-64
2023/07/23 09:49:32;;;;;;;2.67;1.85;;;20.90;99.90;;;;;;5076016;28;20193;-64
2023/07/23 09:52:01;;;;;;;2.70;1.73;;;21.00;99.90;;;;;;5075535;28;20184;-61
2023/07/23 09:54:27;;;;;;;2.72;2.10;;;21.00;99.90;;;;;;5092766;28;20200;-64
2023/07/23 09:56:56;;;;;;;2.30;1.92;;;21.10;99.90;;;;;;5092912;28;20200;-62
2023/07/23 09:59:25;;;;;;;2.22;1.90;;;21.20;99.90;;;;;;5076298;28;20192;-64
2023/07/23 10:01:50;;;;;;;1.90;1.70;;;21.30;99.90;;;;;;5071073;28;20250;-63
2023/07/23 10:04:21;;;;;;;2.47;2.00;;;21.30;99.90;;;;;;5068153;28;20247;-63
2023/07/23 10:06:50;;;;;;;3.55;1.73;;;21.40;99.90;;;;;;5076065;28;20203;-64
2023/07/23 10:09:16;;;;;;;2.92;1.80;;;21.50;99.90;;;;;;5072234;28;20209;-64
2023/07/23 10:11:46;;;;;;;2.47;1.73;;;21.50;99.90;;;;;;5075627;28;20184;-64
2023/07/23 10:14:12;;;;;;;2.10;1.73;;;21.70;99.90;;;;;;5058610;28;20284;-64
2023/07/23 10:16:40;;;;;;;1.95;1.40;;;21.70;99.90;;;;;;5055516;28;20220;-64
2023/07/23 10:19:09;;;;;;;2.22;1.83;;;21.80;99.90;;;;;;5057275;28;20196;-64
2023/07/23 10:21:36;;;;;;;2.83;1.88;;;21.80;99.90;;;;;;5075912;28;20202;-62
2023/07/23 10:24:05;;;;;;;2.97;1.95;;;21.80;99.90;;;;;;5074461;28;20307;-64
2023/07/23 10:26:42;;;;;;;2.70;1.70;;;21.80;99.90;;;;;;5075545;28;20199;-62
2023/07/23 10:29:18;;;;;;;1.95;1.60;;;21.80;99.90;;;;;;5075015;28;20210;-64
2023/07/23 10:31:49;;;;;;;4.63;2.10;;;21.70;99.90;;;;;;5072268;28;20247;-65
2023/07/23 10:34:26;;;;;;;2.40;1.60;;;21.60;99.90;;;;;;5055149;28;20176;-63
2023/07/23 10:37:12;;;;;;;1.90;1.60;;;21.50;99.90;;;;;;5055174;28;20205;-63
2023/07/23 10:39:43;;;;;;;1.80;1.50;;;21.30;99.90;;;;;;5064349;28;20208;-64
2023/07/23 10:42:08;;;;;;;2.28;1.60;;;21.20;99.90;;;;;;5075216;28;20204;-64
2023/07/23 10:44:42;;;;;;;2.53;1.95;;;21.10;99.90;;;;;;5074995;28;20204;-64
2023/07/23 10:47:31;;;;;;;2.30;1.90;;;21.00;99.90;;;;;;5075011;28;20268;-64
2023/07/23 10:50:13;;;;;;;2.00;1.55;;;21.00;99.90;;;;;;5075147;28;20246;-64
2023/07/23 10:52:39;;;;;;;2.10;1.70;;;20.90;99.90;;;;;;5074355;28;20232;-65
2023/07/23 10:55:09;;;;;;;2.00;1.42;;;20.90;99.90;;;;;;5055064;28;20181;-64
2023/07/23 10:57:42;;;;;;;1.70;1.40;;;20.90;99.90;;;;;;5074407;28;20224;-64
2023/07/23 11:00:30;;;;;;;2.67;1.55;;;20.90;99.90;;;;;;5075160;28;20259;-64
2023/07/23 11:03:01;;;;;;;1.50;1.20;;;20.90;99.90;;;;;;5074477;28;20200;-63
2023/07/23 11:05:37;;;;;;;2.95;1.40;;;21.00;99.90;;;;;;5074480;28;20279;-63
2023/07/23 11:08:29;;;;;;;1.65;1.30;;;21.00;99.90;;;;;;5074611;28;20226;-64
2023/07/23 11:11:05;;;;;;;1.52;1.23;;;21.10;99.90;;;;;;5054679;28;20208;-63
2023/07/23 11:13:37;;;;;;;1.73;1.38;;;21.20;99.90;;;;;;5067225;28;20172;-63
2023/07/23 11:16:05;;;;;;;3.05;1.25;;;21.30;99.90;;;;;;5074668;28;20172;-63
2023/07/23 11:18:32;;;;;;;2.05;1.30;;;21.30;99.90;;;;;;5074473;28;20204;-64
2023/07/23 11:21:03;;;;;;;1.27;1.10;;;21.40;99.90;;;;;;5074448;28;20232;-65
2023/07/23 11:23:32;;;;;;;1.60;1.50;;;21.50;99.90;;;;;;5066200;28;20169;-64
2023/07/23 11:25:58;;;;;;;1.67;1.42;;;21.60;99.90;;;;;;5067435;28;20187;-64
2023/07/23 11:28:26;;;;;;;2.75;1.80;;;21.70;99.90;;;;;;5072065;28;20268;-64
2023/07/23 11:30:59;;;;;;;1.90;1.45;;;21.80;99.90;;;;;;5054248;28;20197;-64
2023/07/23 11:33:30;;;;;;;2.47;1.40;;;21.80;99.90;;;;;;5058210;28;20184;-64
2023/07/23 11:35:58;;;;;;;2.90;1.45;;;21.90;99.90;;;;;;5074078;28;20218;-64
2023/07/23 11:38:33;;;;;;;1.70;1.40;;;22.00;99.90;;;;;;5089796;28;20291;-63
2023/07/23 11:41:04;;;;;;;1.67;1.38;;;22.00;99.90;;;;;;5061245;28;20229;-65
2023/07/23 11:43:33;;;;;;;1.73;1.20;;;22.10;99.90;;;;;;5060501;28;20207;-63
2023/07/23 11:46:01;;;;;;;1.52;1.33;;;22.20;99.90;;;;;;5074300;28;20169;-64
2023/07/23 11:48:30;;;;;;;2.83;1.40;;;22.30;99.90;;;;;;5070862;28;20188;-64
2023/07/23 11:50:56;;;;;;;1.40;1.15;;;22.40;99.90;;;;;;5054660;28;20177;-65
2023/07/23 11:53:37;;;;;;;2.70;1.42;;;22.50;99.90;;;;;;5073869;28;20191;-65
2023/07/23 11:56:08;;;;;;;2.25;1.40;;;22.60;99.90;;;;;;5074103;28;20208;-63
2023/07/23 11:58:37;;;;;;;2.60;1.13;;;22.70;99.90;;;;;;5073750;28;20286;-65
2023/07/23 12:01:04;;;;;;;3.00;1.27;;;22.80;99.90;;;;;;5074112;28;20168;-65
2023/07/23 12:03:33;;;;;;;1.10;1.00;;;22.90;99.90;;;;;;5073940;28;20326;-64
2023/07/23 12:06:02;;;;;;;1.75;1.30;;;23.00;99.90;;;;;;5076451;28;20199;-64
2023/07/23 12:08:30;;;;;;;1.58;1.10;;;23.10;99.90;;;;;;5074217;28;20169;-64
2023/07/23 12:10:56;;;;;;;1.58;1.10;;;23.10;99.90;;;;;;5066413;28;20180;-65
2023/07/23 12:13:24;;;;;;;1.40;0.98;;;23.20;99.90;;;;;;5061432;28;20200;-65
2023/07/23 12:15:52;;;;;;;1.58;1.20;;;23.30;99.90;;;;;;5057585;28;20236;-64
2023/07/23 12:18:25;;;;;;;1.20;0.80;;;23.30;99.90;;;;;;5057798;28;20201;-65
2023/07/23 12:20:57;;;;;;;1.45;1.00;;;23.40;99.90;;;;;;5066674;28;20173;-65
2023/07/23 12:23:24;;;;;;;1.42;1.00;;;23.40;99.90;;;;;;5077683;28;20252;-63
2023/07/23 12:25:50;;;;;;;1.80;1.00;;;23.40;99.90;;;;;;5077873;28;20252;-64
2023/07/23 12:28:18;;;;;;;1.27;0.98;;;23.40;99.90;;;;;;5073687;28;20316;-64
2023/07/23 12:30:48;;;;;;;1.10;1.00;;;23.40;99.90;;;;;;5068628;28;20189;-61
2023/07/23 12:33:16;;;;;;;1.05;0.93;;;23.40;99.90;;;;;;5077625;28;20184;-64
2023/07/23 12:35:42;;;;;;;1.30;1.20;;;23.40;99.90;;;;;;5065437;28;20268;-62
2023/07/23 12:38:07;;;;;;;1.52;1.00;;;23.50;99.90;;;;;;5077484;28;20300;-65
2023/07/23 12:40:33;;;;;;;1.45;1.00;;;23.50;99.90;;;;;;5077655;28;20168;-64
2023/07/23 12:42:59;;;;;;;1.17;0.90;;;23.50;99.90;;;;;;5077593;28;20149;-64
2023/07/23 12:45:24;;;;;;;1.23;0.88;;;23.50;99.90;;;;;;5077484;28;20177;-64
2023/07/23 12:47:52;;;;;;;1.25;1.15;;;23.50;99.90;;;;;;5076285;28;20219;-62
2023/07/23 12:50:20;;;;;;;1.65;0.90;;;23.60;99.90;;;;;;5077491;28;20168;-64
2023/07/23 12:52:45;;;;;;;1.73;0.90;;;23.60;99.90;;;;;;5073008;28;20177;-61